Portada
METAR-TAF:

METAR-TAF

Aeroports :

Dimapur, Índia

latitud: 25-53-02N, longitud: 093-46-16E, altitud: 148 m

Observació

L'informe es va fer fa 7 hores i 40 minuts, a les 09:00 UTC
Vent 6 kt del Est
Temperatura 34°C
Humitat 75%
Pressió 993 hPa
Visibilitat: 6000 m
Escasses núvols a una alçada de 1000 ft
Núvols disperses a una alçada de 2000 ft
Cel ennuvolat a una alçada de 10000 ft

METAR: VEMR 250900Z 09006KT 6000 FEW010 SCT020 BKN100 34/29 Q0993 NOSIG

Hora: 22:10 (16:40 UTC)

Pronòstic

L'informe es va fer fa 23 hores i 40 minuts, a les 17:00 UTC
Pronòstic vàlid del 24 a les 18 UTC al 25 a les 03 UTC
Vent kt del Nord
Visibilitat: 2000 m
Núvols disperses a una alçada de 2000 ft
Núvols disperses a una alçada de 10000 ft
boirina,

TAF: VEMR 241700Z 2418/2503 00000KT 2000 BR SCT020 SCT100

Observacions i pronòstics meteorològics de més de 4000 aeroports (METAR i TAF).

Les estacions disponibles són els punts grocs i vermells al mapa.

Posi el ratolí al punt desitjat per veure el nom de l'estació.

Feu clic per veure les observacions i els pronòstics meteorològics.

Per canviar el mapa: feu clic els botons verds amb una creu de color negre per apropar; al botó verd amb un guió per allunyar la imatge; o en les fletxes verdes per a mapes adjacents.


METAR-TAF: